createdAt,value
2022-10-14T00:01:35.676Z,71.18
2022-10-14T00:10:05.694Z,71.10
2022-10-14T00:18:29.838Z,70.91
2022-10-14T00:26:52.787Z,71.04
2022-10-14T00:35:16.020Z,71.00
2022-10-14T00:44:02.247Z,71.07
2022-10-14T00:52:27.192Z,71.19
2022-10-14T01:00:51.506Z,70.93
2022-10-14T01:09:30.843Z,70.88
2022-10-14T01:18:15.700Z,71.02
2022-10-14T01:27:15.553Z,71.09
2022-10-14T01:35:51.749Z,71.03
2022-10-14T01:44:17.378Z,71.07
2022-10-14T01:52:47.147Z,71.07
2022-10-14T02:01:10.287Z,71.29
2022-10-14T02:10:06.114Z,71.26
2022-10-14T02:18:54.355Z,71.32
2022-10-14T02:27:20.870Z,71.35
2022-10-14T02:35:44.960Z,71.22
2022-10-14T02:44:08.847Z,71.30
2022-10-14T02:52:31.757Z,71.35
2022-10-14T03:00:54.736Z,71.34
2022-10-14T03:09:17.810Z,71.62
2022-10-14T03:17:42.075Z,71.59
2022-10-14T03:26:05.824Z,71.66
2022-10-14T03:34:33.209Z,71.52
2022-10-14T03:43:02.703Z,71.50
2022-10-14T03:51:33.348Z,71.56
2022-10-14T04:00:13.205Z,71.73
2022-10-14T04:08:38.534Z,71.87
2022-10-14T04:17:27.613Z,71.99
2022-10-14T04:25:51.000Z,72.02
2022-10-14T04:34:14.383Z,72.18
2022-10-14T04:42:37.347Z,72.31
2022-10-14T04:51:01.438Z,72.38
2022-10-14T04:59:42.863Z,72.23
2022-10-14T05:08:14.800Z,72.45
2022-10-14T05:16:40.359Z,72.45
2022-10-14T05:25:04.931Z,72.40
2022-10-14T05:33:28.296Z,72.65
2022-10-14T05:41:51.366Z,72.58
2022-10-14T05:50:18.812Z,72.59
2022-10-14T05:58:42.283Z,72.74
2022-10-14T06:07:05.784Z,72.84
2022-10-14T06:15:28.705Z,73.03
2022-10-14T06:23:52.180Z,72.98
2022-10-14T06:32:15.155Z,73.32
2022-10-14T06:40:38.010Z,73.42
2022-10-14T06:49:00.795Z,73.65
2022-10-14T06:57:23.671Z,73.68
2022-10-14T07:05:47.358Z,73.85
2022-10-14T07:14:10.430Z,73.91
2022-10-14T07:22:38.928Z,74.00
2022-10-14T07:31:09.002Z,74.06
2022-10-14T07:39:32.004Z,74.32
2022-10-14T07:47:54.840Z,74.32
2022-10-14T07:56:17.744Z,74.28
2022-10-14T08:04:40.793Z,74.29
2022-10-14T08:13:04.443Z,74.50
2022-10-14T08:21:28.128Z,74.55
2022-10-14T08:29:51.030Z,74.57
2022-10-14T08:38:13.961Z,74.79
2022-10-14T08:46:51.032Z,74.80
2022-10-14T08:55:41.151Z,75.09
2022-10-14T09:04:07.319Z,75.20
2022-10-14T09:12:35.235Z,75.28
2022-10-14T09:20:59.072Z,75.09
2022-10-14T09:29:28.611Z,75.24
2022-10-14T09:37:52.206Z,75.02
2022-10-14T09:46:17.838Z,75.10
2022-10-14T09:54:40.812Z,74.97
2022-10-14T10:03:04.772Z,75.01
2022-10-14T10:11:35.787Z,74.99
2022-10-14T10:20:08.750Z,75.03
2022-10-14T10:28:31.892Z,74.94
2022-10-14T10:37:04.147Z,74.91
2022-10-14T10:45:45.626Z,74.99
2022-10-14T10:54:41.813Z,75.01
2022-10-14T11:03:46.479Z,74.94
2022-10-14T11:12:23.956Z,74.93
2022-10-14T11:21:03.761Z,75.05
2022-10-14T11:30:01.692Z,75.16
2022-10-14T11:38:31.117Z,74.97
2022-10-14T11:46:58.537Z,75.38
2022-10-14T11:55:24.745Z,75.21
2022-10-14T12:04:35.895Z,74.97
2022-10-14T12:13:02.810Z,74.95
2022-10-14T12:22:02.960Z,75.04
2022-10-14T12:30:39.104Z,75.09
2022-10-14T12:39:19.474Z,74.98
2022-10-14T12:47:45.139Z,75.00
2022-10-14T12:56:11.470Z,75.19
2022-10-14T13:04:35.390Z,74.93
2022-10-14T13:13:00.573Z,74.85
2022-10-14T13:21:31.678Z,74.84
2022-10-14T13:30:19.044Z,74.98
2022-10-14T13:38:51.932Z,74.63
2022-10-14T13:47:18.917Z,74.62
2022-10-14T13:55:53.158Z,74.75
2022-10-14T14:04:25.069Z,74.80
2022-10-14T14:12:49.207Z,74.38
2022-10-14T14:21:13.018Z,74.53
2022-10-14T14:29:39.279Z,74.48
2022-10-14T14:38:02.513Z,74.40
2022-10-14T14:46:35.016Z,74.50
2022-10-14T14:54:58.015Z,74.41
2022-10-14T15:03:23.243Z,74.41
2022-10-14T15:11:50.296Z,74.27
2022-10-14T15:20:38.282Z,74.12
2022-10-14T15:29:08.330Z,74.09
2022-10-14T15:37:31.580Z,74.16
2022-10-14T15:46:14.906Z,74.04
2022-10-14T15:54:37.767Z,73.77
2022-10-14T16:03:03.775Z,73.81
2022-10-14T16:11:29.875Z,73.91
2022-10-14T16:19:52.768Z,73.76
2022-10-14T16:28:17.268Z,73.79
2022-10-14T16:36:40.632Z,73.88
2022-10-14T16:45:04.102Z,73.87
2022-10-14T16:53:41.797Z,73.78
2022-10-14T17:02:11.638Z,73.71
2022-10-14T17:10:35.976Z,73.83
2022-10-14T17:18:59.430Z,73.81
2022-10-14T17:27:25.888Z,73.73
2022-10-14T17:36:00.549Z,73.68
2022-10-14T17:44:25.501Z,73.80
2022-10-14T17:52:51.859Z,73.75
2022-10-14T18:01:16.267Z,73.66
2022-10-14T18:09:39.016Z,73.68
2022-10-14T18:18:01.892Z,73.68
2022-10-14T18:26:25.154Z,73.76
2022-10-14T18:34:48.075Z,73.81
2022-10-14T18:43:10.933Z,73.84
2022-10-14T18:51:36.560Z,73.97
2022-10-14T18:59:59.351Z,73.77
2022-10-14T19:08:22.917Z,73.97
2022-10-14T19:16:47.587Z,74.06
2022-10-14T19:25:10.410Z,73.89
2022-10-14T19:33:43.059Z,73.92
2022-10-14T19:42:06.069Z,73.93
2022-10-14T19:50:28.915Z,73.88
2022-10-14T19:58:54.310Z,73.80
2022-10-14T20:07:18.173Z,73.90
2022-10-14T20:15:41.345Z,74.06
2022-10-14T20:24:04.534Z,73.83
2022-10-14T20:32:27.615Z,73.91
2022-10-14T20:40:50.316Z,74.06
2022-10-14T20:49:13.022Z,73.96
2022-10-14T20:57:36.221Z,74.00
2022-10-14T21:06:10.287Z,73.86
2022-10-14T21:14:33.382Z,73.90
2022-10-14T21:22:56.237Z,74.18
2022-10-14T21:31:20.076Z,73.99
2022-10-14T21:39:43.110Z,73.95
2022-10-14T21:48:05.880Z,74.05
2022-10-14T21:56:29.464Z,74.19
2022-10-14T22:04:52.139Z,74.12
2022-10-14T22:13:15.028Z,74.10
2022-10-14T22:21:39.821Z,74.07
2022-10-14T22:30:04.112Z,74.20
2022-10-14T22:38:26.901Z,74.21
2022-10-14T22:46:49.782Z,74.18
2022-10-14T22:55:13.082Z,74.02
2022-10-14T23:03:37.607Z,74.08
2022-10-14T23:12:01.234Z,74.15
2022-10-14T23:20:24.528Z,74.04
2022-10-14T23:28:53.781Z,74.01
2022-10-14T23:37:16.842Z,74.21
2022-10-14T23:45:41.110Z,74.12
2022-10-14T23:54:06.632Z,74.01
